Time;durP1;ratioP1;P1;durP2;ratioP2;P2;SDS_P1;SDS_P2;PMS_P1;PMS_P2;Temp;Humidity;BMP_temperature;BMP_pressure;BME280_temperature;BME280_humidity;BME280_pressure;Samples;Min_cycle;Max_cycle;Signal;HPM_P1;HPM_P2
2022/06/16 00:01:18;;;;;;;6.60;6.00;;;20.40;44.10;;;;;;5078142;28;20525;-72
2022/06/16 00:03:45;;;;;;;7.33;6.63;;;20.30;44.10;;;;;;5078598;28;21018;-73
2022/06/16 00:06:13;;;;;;;6.77;6.17;;;20.30;45.00;;;;;;5078910;28;20428;-74
2022/06/16 00:08:40;;;;;;;6.87;6.17;;;20.30;45.10;;;;;;5081616;28;20473;-74
2022/06/16 00:11:19;;;;;;;6.50;5.90;;;20.20;45.00;;;;;;5076363;28;20535;-73
2022/06/16 00:13:48;;;;;;;6.80;6.20;;;20.10;45.30;;;;;;5074404;28;20952;-73
2022/06/16 00:16:15;;;;;;;7.40;6.70;;;20.10;45.70;;;;;;5069070;28;20641;-73
2022/06/16 00:18:42;;;;;;;6.73;6.17;;;20.00;45.40;;;;;;5065955;28;21071;-73
2022/06/16 00:21:10;;;;;;;6.33;5.73;;;20.00;45.80;;;;;;5073997;28;20452;-73
2022/06/16 00:23:39;;;;;;;10.53;6.90;;;19.80;46.20;;;;;;5067738;28;20484;-74
2022/06/16 00:26:11;;;;;;;7.13;6.10;;;19.80;45.60;;;;;;5063719;28;20451;-73
2022/06/16 00:28:40;;;;;;;6.93;6.33;;;19.80;45.80;;;;;;5083608;28;20462;-74
2022/06/16 00:31:08;;;;;;;6.77;6.17;;;19.70;46.30;;;;;;5061776;28;20520;-73
2022/06/16 00:33:35;;;;;;;11.10;5.90;;;19.60;46.50;;;;;;5063650;28;20452;-73
2022/06/16 00:36:02;;;;;;;8.37;6.13;;;19.60;46.70;;;;;;5063144;28;20940;-73
2022/06/16 00:38:29;;;;;;;6.37;5.77;;;19.50;46.70;;;;;;5073876;28;20493;-74
2022/06/16 00:40:57;;;;;;;7.10;6.47;;;19.50;46.30;;;;;;5057933;28;20939;-72
2022/06/16 00:43:24;;;;;;;10.27;7.57;;;19.50;46.10;;;;;;5054439;28;20428;-73
2022/06/16 00:45:55;;;;;;;7.10;6.50;;;19.50;46.00;;;;;;5055936;28;20458;-73
2022/06/16 00:48:26;;;;;;;7.10;6.50;;;19.40;46.80;;;;;;5055350;28;20477;-72
2022/06/16 00:50:56;;;;;;;10.40;6.40;;;19.30;47.20;;;;;;5055438;28;20462;-73
2022/06/16 00:53:24;;;;;;;7.30;6.60;;;19.30;46.80;;;;;;5074023;28;21098;-73
2022/06/16 00:55:51;;;;;;;8.90;6.70;;;19.20;47.90;;;;;;5075719;28;20543;-72
2022/06/16 00:58:24;;;;;;;7.57;6.83;;;19.20;48.10;;;;;;5075815;28;20498;-74
2022/06/16 01:00:54;;;;;;;6.90;6.30;;;19.10;48.00;;;;;;5076001;28;20543;-73
2022/06/16 01:06:18;;;;;;;7.30;6.80;;;19.00;48.40;;;;;;5074456;28;20469;-72
2022/06/16 01:08:46;;;;;;;8.17;7.37;;;19.00;48.70;;;;;;5073430;28;20464;-73
2022/06/16 01:13:41;;;;;;;7.57;6.83;;;18.90;48.40;;;;;;5073270;28;20452;-74
2022/06/16 01:14:18;;;;;;;7.50;6.87;;;18.90;49.20;;;;;;5073043;28;20444;-73
2022/06/16 01:16:49;;;;;;;7.73;6.93;;;18.90;49.20;;;;;;5072929;28;20456;-73
2022/06/16 01:19:32;;;;;;;7.77;7.13;;;18.80;49.30;;;;;;5073779;28;20598;-73
2022/06/16 01:22:03;;;;;;;6.57;6.07;;;18.80;49.20;;;;;;5073320;28;20939;-74
2022/06/16 01:24:57;;;;;;;9.50;7.00;;;18.70;49.50;;;;;;5074749;28;20448;-74
2022/06/16 01:28:00;;;;;;;7.43;6.70;;;18.70;49.80;;;;;;5075078;28;20452;-73
2022/06/16 01:30:33;;;;;;;8.07;7.10;;;18.70;48.30;;;;;;5021807;28;20464;-74
2022/06/16 01:33:07;;;;;;;8.13;7.40;;;18.70;48.20;;;;;;5057738;28;20491;-74
2022/06/16 01:35:41;;;;;;;10.27;7.07;;;18.70;49.70;;;;;;5057783;28;20460;-73
2022/06/16 01:38:15;;;;;;;7.00;6.50;;;18.60;50.50;;;;;;5060268;28;20575;-73
2022/06/16 01:40:47;;;;;;;7.43;6.73;;;18.40;51.10;;;;;;5063656;28;20466;-73
2022/06/16 01:43:19;;;;;;;6.97;6.37;;;18.20;51.40;;;;;;5076432;28;20453;-73
2022/06/16 01:45:53;;;;;;;7.20;6.43;;;18.20;52.10;;;;;;5077095;28;20428;-72
2022/06/16 01:48:21;;;;;;;6.53;5.97;;;18.00;52.20;;;;;;5076688;28;20456;-74
2022/06/16 01:50:53;;;;;;;8.30;6.73;;;18.00;52.70;;;;;;5067648;28;20485;-73
2022/06/16 01:53:27;;;;;;;7.23;6.13;;;18.00;52.30;;;;;;5054455;28;20895;-73
2022/06/16 01:56:01;;;;;;;7.43;6.60;;;18.00;51.60;;;;;;5052705;28;20464;-73
2022/06/16 01:58:33;;;;;;;7.53;6.33;;;18.00;51.60;;;;;;5052392;28;20500;-73
2022/06/16 02:01:07;;;;;;;6.93;6.20;;;18.10;51.00;;;;;;5053408;28;20976;-74
2022/06/16 02:03:37;;;;;;;9.30;6.07;;;18.10;50.70;;;;;;5052940;28;20461;-73
2022/06/16 02:06:09;;;;;;;7.10;5.80;;;18.20;49.90;;;;;;5053236;28;20507;-74
2022/06/16 02:08:41;;;;;;;6.70;6.10;;;18.20;48.30;;;;;;5053689;28;20491;-75
2022/06/16 02:11:14;;;;;;;5.97;5.47;;;18.20;48.40;;;;;;5054503;28;20839;-74
2022/06/16 02:13:46;;;;;;;5.63;5.13;;;18.20;48.30;;;;;;5054483;28;20599;-73
2022/06/16 02:16:20;;;;;;;8.23;5.67;;;18.20;48.90;;;;;;5054110;28;20456;-74
2022/06/16 02:18:51;;;;;;;6.50;5.57;;;18.20;48.70;;;;;;5054979;28;20559;-74
2022/06/16 02:21:23;;;;;;;5.50;5.00;;;18.20;48.60;;;;;;5054316;28;20472;-74
2022/06/16 02:23:52;;;;;;;5.50;5.00;;;18.10;48.60;;;;;;5055368;28;20536;-74
2022/06/16 02:26:19;;;;;;;6.30;5.53;;;18.10;48.60;;;;;;5055797;28;20457;-74
2022/06/16 02:28:48;;;;;;;6.00;5.60;;;18.10;48.40;;;;;;5057323;28;20506;-74
2022/06/16 02:31:46;;;;;;;8.57;6.00;;;18.10;48.30;;;;;;5054176;28;20488;-75
2022/06/16 02:34:21;;;;;;;5.50;5.10;;;18.00;48.90;;;;;;5038927;28;20464;-75
2022/06/16 02:37:10;;;;;;;6.90;5.77;;;18.00;49.00;;;;;;5058132;28;20529;-74
2022/06/16 02:39:49;;;;;;;6.50;5.90;;;18.00;49.20;;;;;;5065046;28;20512;-74
2022/06/16 02:42:20;;;;;;;5.93;5.27;;;17.90;49.60;;;;;;5067546;28;20452;-73
2022/06/16 02:44:59;;;;;;;5.97;5.47;;;17.90;49.70;;;;;;5061080;28;20458;-73
2022/06/16 02:47:48;;;;;;;7.90;6.23;;;17.90;50.10;;;;;;5055130;28;20760;-74
2022/06/16 02:50:25;;;;;;;6.63;5.90;;;18.00;50.10;;;;;;5055407;28;20959;-73
2022/06/16 02:53:00;;;;;;;6.07;5.47;;;18.00;50.50;;;;;;5055445;28;20454;-73
2022/06/16 02:55:34;;;;;;;9.23;5.80;;;18.10;50.30;;;;;;5054962;28;20451;-74
2022/06/16 02:58:03;;;;;;;6.17;5.67;;;18.20;49.90;;;;;;5054952;28;20524;-73
2022/06/16 03:00:38;;;;;;;5.40;5.00;;;18.10;49.30;;;;;;5055002;28;20563;-73
2022/06/16 03:03:21;;;;;;;5.47;4.97;;;18.10;49.80;;;;;;5055168;28;20531;-73
2022/06/16 03:05:51;;;;;;;6.00;5.50;;;18.10;49.90;;;;;;5054539;28;20874;-73
2022/06/16 03:08:18;;;;;;;7.77;5.70;;;18.10;49.90;;;;;;5055118;28;20977;-73
2022/06/16 03:10:51;;;;;;;8.30;6.20;;;18.10;49.70;;;;;;5055437;28;20945;-75
2022/06/16 03:13:19;;;;;;;5.93;5.43;;;18.20;49.40;;;;;;5057124;28;20480;-74
2022/06/16 03:15:46;;;;;;;6.63;5.60;;;18.20;49.90;;;;;;5055893;28;20819;-72
2022/06/16 03:18:12;;;;;;;6.20;5.67;;;18.20;49.60;;;;;;5055505;28;20528;-72
2022/06/16 03:20:41;;;;;;;5.60;5.10;;;18.10;49.90;;;;;;5056180;28;20465;-73
2022/06/16 03:23:08;;;;;;;6.07;5.57;;;18.00;50.10;;;;;;5057715;28;20482;-72
2022/06/16 03:25:35;;;;;;;6.23;5.73;;;18.00;50.90;;;;;;5058529;28;20453;-72
2022/06/16 03:28:02;;;;;;;7.33;6.50;;;18.10;51.30;;;;;;5058842;28;20432;-73
2022/06/16 03:30:29;;;;;;;6.17;5.57;;;18.10;52.00;;;;;;5058295;28;20529;-73
2022/06/16 03:32:56;;;;;;;6.70;6.20;;;18.10;51.70;;;;;;5058867;28;20856;-73
2022/06/16 03:35:23;;;;;;;7.97;7.17;;;18.10;52.00;;;;;;5058441;28;20445;-73
2022/06/16 03:37:51;;;;;;;6.70;6.07;;;18.10;52.60;;;;;;5057857;28;20479;-74
2022/06/16 03:40:18;;;;;;;7.93;7.13;;;18.00;53.70;;;;;;5054754;28;20457;-73
2022/06/16 03:42:47;;;;;;;6.43;5.90;;;18.10;53.80;;;;;;5055080;28;20535;-73
2022/06/16 03:45:14;;;;;;;6.20;5.70;;;18.20;53.80;;;;;;5054469;28;20439;-73
2022/06/16 03:47:41;;;;;;;6.40;5.80;;;18.40;53.00;;;;;;5055159;28;20481;-73
2022/06/16 03:50:12;;;;;;;6.83;6.23;;;18.50;52.00;;;;;;5054720;28;20435;-73
2022/06/16 03:52:39;;;;;;;8.80;6.10;;;18.60;51.70;;;;;;5054726;28;20457;-72
2022/06/16 03:55:09;;;;;;;6.40;5.80;;;18.70;51.50;;;;;;5056464;28;20449;-74
2022/06/16 03:57:35;;;;;;;6.80;6.30;;;18.60;51.60;;;;;;5062960;28;20536;-73
2022/06/16 04:00:02;;;;;;;7.90;6.40;;;18.70;51.80;;;;;;5061801;28;20493;-75
2022/06/16 04:02:31;;;;;;;6.87;6.17;;;18.70;51.70;;;;;;5067533;28;20455;-73
2022/06/16 04:04:58;;;;;;;7.20;6.50;;;18.70;52.00;;;;;;5054696;28;20456;-73
2022/06/16 04:07:25;;;;;;;7.33;6.73;;;18.70;51.20;;;;;;5055376;28;20544;-73
2022/06/16 04:09:51;;;;;;;6.53;6.00;;;18.80;51.40;;;;;;5064049;28;20487;-74
2022/06/16 04:12:20;;;;;;;7.63;6.83;;;18.80;50.60;;;;;;5073066;28;20432;-74
2022/06/16 04:14:46;;;;;;;8.03;7.23;;;18.90;49.90;;;;;;5076187;28;20430;-74
2022/06/16 04:17:13;;;;;;;6.77;6.07;;;18.90;49.70;;;;;;5076748;28;20473;-72
2022/06/16 04:20:11;;;;;;;7.07;6.43;;;19.00;49.30;;;;;;5075474;28;20474;-74
2022/06/16 04:22:28;;;;;;;7.90;6.30;;;19.00;48.40;;;;;;5070395;28;20441;-73
2022/06/16 04:24:55;;;;;;;6.53;5.80;;;19.10;48.00;;;;;;5067689;28;20508;-74
2022/06/16 04:27:23;;;;;;;6.60;5.90;;;19.00;46.10;;;;;;5060507;28;20571;-73
2022/06/16 04:29:51;;;;;;;6.13;5.53;;;19.10;45.40;;;;;;5055026;28;20451;-73
2022/06/16 04:32:19;;;;;;;5.87;5.33;;;19.20;45.10;;;;;;5054390;28;20439;-73
2022/06/16 04:34:46;;;;;;;5.67;5.10;;;19.30;44.40;;;;;;5055189;28;20450;-72
2022/06/16 04:37:13;;;;;;;5.83;5.27;;;19.20;43.80;;;;;;5073127;28;20475;-73
2022/06/16 04:39:40;;;;;;;5.40;5.00;;;19.30;43.70;;;;;;5073644;28;20852;-73
2022/06/16 04:42:07;;;;;;;6.23;5.60;;;19.30;43.50;;;;;;5072158;28;20513;-73
2022/06/16 04:44:35;;;;;;;6.57;5.83;;;19.40;43.30;;;;;;5070762;28;20480;-73
2022/06/16 04:47:03;;;;;;;8.07;6.03;;;19.50;42.60;;;;;;5073433;28;20919;-73
2022/06/16 04:49:30;;;;;;;6.20;5.70;;;19.60;42.10;;;;;;5070599;28;20489;-73
2022/06/16 04:51:57;;;;;;;5.70;5.30;;;19.70;41.70;;;;;;5067980;28;20469;-73
2022/06/16 04:54:23;;;;;;;6.20;5.60;;;19.90;41.50;;;;;;5068776;28;20415;-74
2022/06/16 04:56:51;;;;;;;5.80;5.30;;;20.10;40.50;;;;;;5072201;28;20553;-74
2022/06/16 04:59:18;;;;;;;5.87;5.33;;;20.40;39.20;;;;;;5071814;28;20492;-73
2022/06/16 05:01:46;;;;;;;5.70;5.20;;;20.50;39.30;;;;;;5072805;28;20462;-74
2022/06/16 05:04:13;;;;;;;5.57;5.00;;;20.60;39.40;;;;;;5071382;28;20948;-73
2022/06/16 05:06:40;;;;;;;6.43;5.30;;;20.70;39.50;;;;;;5074863;28;20552;-73
2022/06/16 05:09:07;;;;;;;5.87;5.27;;;20.80;38.80;;;;;;5071074;28;20482;-74
2022/06/16 05:11:38;;;;;;;5.03;4.73;;;20.90;38.70;;;;;;5065149;28;20464;-74
2022/06/16 05:14:05;;;;;;;5.70;5.20;;;21.00;38.60;;;;;;5073602;28;20921;-73
2022/06/16 05:16:32;;;;;;;5.60;4.80;;;21.20;38.60;;;;;;5081114;28;20950;-76
2022/06/16 05:19:00;;;;;;;7.40;5.67;;;21.30;40.00;;;;;;5070714;28;20584;-75
2022/06/16 05:21:27;;;;;;;5.67;5.27;;;20.90;40.30;;;;;;5058211;28;20440;-76
2022/06/16 05:23:54;;;;;;;6.33;5.43;;;20.90;40.20;;;;;;5064298;28;20450;-76
2022/06/16 05:26:21;;;;;;;8.10;5.67;;;20.80;40.70;;;;;;5073070;28;20810;-76
2022/06/16 05:28:47;;;;;;;5.90;5.50;;;20.70;41.40;;;;;;5073186;28;20466;-76
2022/06/16 05:31:14;;;;;;;5.90;5.10;;;20.80;41.70;;;;;;5056146;28;20457;-76
2022/06/16 05:33:41;;;;;;;6.67;5.70;;;21.20;40.70;;;;;;5059035;28;20462;-76
2022/06/16 05:36:11;;;;;;;6.07;5.47;;;21.30;40.00;;;;;;5066223;28;20466;-76
2022/06/16 05:38:39;;;;;;;6.37;4.97;;;21.50;40.20;;;;;;5059921;28;20501;-77
2022/06/16 05:41:10;;;;;;;7.67;5.30;;;22.30;37.90;;;;;;5072746;28;20553;-76
2022/06/16 05:43:37;;;;;;;5.30;4.80;;;23.20;35.50;;;;;;5059466;28;20941;-77
2022/06/16 05:46:05;;;;;;;5.40;5.00;;;23.60;34.00;;;;;;5057241;28;20605;-76
2022/06/16 05:48:33;;;;;;;5.53;5.03;;;24.10;32.30;;;;;;5061332;28;20487;-77
2022/06/16 05:51:05;;;;;;;6.77;5.10;;;23.80;32.00;;;;;;5067184;28;20889;-76
2022/06/16 05:53:34;;;;;;;7.93;5.80;;;23.70;33.20;;;;;;5072333;28;20456;-77
2022/06/16 05:56:01;;;;;;;5.23;4.73;;;24.20;32.40;;;;;;5062149;28;20837;-76
2022/06/16 05:58:28;;;;;;;7.70;4.43;;;25.10;31.40;;;;;;5072963;28;20444;-77
2022/06/16 06:00:55;;;;;;;5.20;4.80;;;25.80;29.30;;;;;;5068062;28;20487;-77
2022/06/16 06:03:22;;;;;;;7.90;4.77;;;26.40;28.10;;;;;;5069912;28;20516;-77
2022/06/16 06:05:49;;;;;;;4.80;4.27;;;26.70;27.70;;;;;;5061856;28;20545;-77
2022/06/16 06:16:36;;;;;;;5.80;5.30;;;26.90;26.20;;;;;;5069293;28;20462;-77
2022/06/16 06:19:23;;;;;;;5.30;4.80;;;25.90;27.80;;;;;;5061928;28;20484;-77
2022/06/16 06:22:00;;;;;;;5.33;4.87;;;25.80;28.10;;;;;;5052826;28;20974;-78
2022/06/16 06:24:28;;;;;;;5.97;5.10;;;25.80;28.10;;;;;;5058248;28;20917;-78
2022/06/16 06:27:00;;;;;;;6.03;5.00;;;26.00;28.30;;;;;;5073985;28;20505;-78
2022/06/16 06:29:28;;;;;;;5.73;4.80;;;25.90;28.50;;;;;;5065951;28;20479;-75
2022/06/16 06:31:55;;;;;;;4.60;4.20;;;25.40;29.20;;;;;;5058938;28;20543;-75
2022/06/16 06:34:23;;;;;;;5.77;4.87;;;25.20;30.00;;;;;;5058939;28;20464;-75
2022/06/16 06:36:50;;;;;;;7.40;5.40;;;25.30;29.70;;;;;;5058878;28;20430;-73
2022/06/16 06:39:16;;;;;;;5.37;4.63;;;25.70;28.80;;;;;;5076222;28;20515;-73
2022/06/16 06:41:43;;;;;;;4.97;4.57;;;26.40;27.50;;;;;;5076131;28;20443;-75
2022/06/16 06:44:12;;;;;;;7.53;4.90;;;26.30;26.90;;;;;;5074959;28;20474;-74
